sensor_id;sensor_type;location;lat;lon;timestamp;temperature;humidity
69162;DHT22;56269;51.738;21.652;2022-12-29T00:01:36;3.46;89.61
69162;DHT22;56269;51.738;21.652;2022-12-29T00:04:03;3.43;90.19
69162;DHT22;56269;51.738;21.652;2022-12-29T00:06:30;3.44;89.78
69162;DHT22;56269;51.738;21.652;2022-12-29T00:08:56;3.41;89.53
69162;DHT22;56269;51.738;21.652;2022-12-29T00:11:26;3.39;90.29
69162;DHT22;56269;51.738;21.652;2022-12-29T00:13:53;3.34;90.39
69162;DHT22;56269;51.738;21.652;2022-12-29T00:16:41;3.27;90.63
69162;DHT22;56269;51.738;21.652;2022-12-29T00:19:07;3.33;90.50
69162;DHT22;56269;51.738;21.652;2022-12-29T00:21:53;3.37;90.06
69162;DHT22;56269;51.738;21.652;2022-12-29T00:24:43;3.39;90.42
69162;DHT22;56269;51.738;21.652;2022-12-29T00:27:19;3.36;90.56
69162;DHT22;56269;51.738;21.652;2022-12-29T00:30:10;3.33;90.13
69162;DHT22;56269;51.738;21.652;2022-12-29T00:32:55;3.36;89.88
69162;DHT22;56269;51.738;21.652;2022-12-29T00:35:45;3.40;89.44
69162;DHT22;56269;51.738;21.652;2022-12-29T00:38:13;3.37;89.38
69162;DHT22;56269;51.738;21.652;2022-12-29T00:40:58;3.32;89.76
69162;DHT22;56269;51.738;21.652;2022-12-29T00:43:43;3.27;89.91
69162;DHT22;56269;51.738;21.652;2022-12-29T00:46:27;3.30;89.57
69162;DHT22;56269;51.738;21.652;2022-12-29T00:48:54;3.27;89.83
69162;DHT22;56269;51.738;21.652;2022-12-29T00:51:38;3.19;89.88
69162;DHT22;56269;51.738;21.652;2022-12-29T00:54:05;3.18;89.88
69162;DHT22;56269;51.738;21.652;2022-12-29T00:56:31;3.12;90.78
69162;DHT22;56269;51.738;21.652;2022-12-29T00:59:05;3.09;91.00
69162;DHT22;56269;51.738;21.652;2022-12-29T01:01:32;3.05;90.22
69162;DHT22;56269;51.738;21.652;2022-12-29T01:03:59;3.02;90.54
69162;DHT22;56269;51.738;21.652;2022-12-29T01:06:25;2.98;91.04
69162;DHT22;56269;51.738;21.652;2022-12-29T01:08:51;2.92;90.93
69162;DHT22;56269;51.738;21.652;2022-12-29T01:11:53;2.93;90.62
69162;DHT22;56269;51.738;21.652;2022-12-29T01:14:19;2.92;90.68
69162;DHT22;56269;51.738;21.652;2022-12-29T01:16:46;2.95;90.13
69162;DHT22;56269;51.738;21.652;2022-12-29T01:19:14;2.93;90.50
69162;DHT22;56269;51.738;21.652;2022-12-29T01:21:40;2.92;90.42
69162;DHT22;56269;51.738;21.652;2022-12-29T01:24:07;2.87;90.08
69162;DHT22;56269;51.738;21.652;2022-12-29T01:26:33;2.81;90.81
69162;DHT22;56269;51.738;21.652;2022-12-29T01:28:59;2.77;91.08
69162;DHT22;56269;51.738;21.652;2022-12-29T01:31:25;2.75;90.62
69162;DHT22;56269;51.738;21.652;2022-12-29T01:33:52;2.72;90.84
69162;DHT22;56269;51.738;21.652;2022-12-29T01:36:19;2.69;90.81
69162;DHT22;56269;51.738;21.652;2022-12-29T01:38:45;2.69;91.07
69162;DHT22;56269;51.738;21.652;2022-12-29T01:41:13;2.69;90.91
69162;DHT22;56269;51.738;21.652;2022-12-29T01:43:52;2.74;90.83
69162;DHT22;56269;51.738;21.652;2022-12-29T01:49:04;2.81;90.56
69162;DHT22;56269;51.738;21.652;2022-12-29T01:51:39;2.84;90.10
69162;DHT22;56269;51.738;21.652;2022-12-29T01:54:11;2.81;89.89
69162;DHT22;56269;51.738;21.652;2022-12-29T01:56:39;2.89;90.24
69162;DHT22;56269;51.738;21.652;2022-12-29T01:59:15;2.82;89.94
69162;DHT22;56269;51.738;21.652;2022-12-29T02:01:42;2.77;89.57
69162;DHT22;56269;51.738;21.652;2022-12-29T02:04:11;2.79;89.83
69162;DHT22;56269;51.738;21.652;2022-12-29T02:06:51;2.79;89.24
69162;DHT22;56269;51.738;21.652;2022-12-29T02:09:20;2.71;89.53
69162;DHT22;56269;51.738;21.652;2022-12-29T02:11:46;2.69;89.56
69162;DHT22;56269;51.738;21.652;2022-12-29T02:14:13;2.66;89.42
69162;DHT22;56269;51.738;21.652;2022-12-29T02:22:34;2.57;89.87
69162;DHT22;56269;51.738;21.652;2022-12-29T02:30:58;2.36;89.72
69162;DHT22;56269;51.738;21.652;2022-12-29T02:36:32;2.28;89.80
69162;DHT22;56269;51.738;21.652;2022-12-29T02:39:09;2.21;89.76
69162;DHT22;56269;51.738;21.652;2022-12-29T02:42:04;2.27;89.84
69162;DHT22;56269;51.738;21.652;2022-12-29T02:47:24;2.27;89.72
69162;DHT22;56269;51.738;21.652;2022-12-29T02:50:05;2.24;89.78
69162;DHT22;56269;51.738;21.652;2022-12-29T02:52:40;2.30;89.60
69162;DHT22;56269;51.738;21.652;2022-12-29T02:55:11;2.26;90.06
69162;DHT22;56269;51.738;21.652;2022-12-29T02:57:37;2.27;89.26
69162;DHT22;56269;51.738;21.652;2022-12-29T03:00:12;2.27;89.36
69162;DHT22;56269;51.738;21.652;2022-12-29T03:08:49;2.36;88.85
69162;DHT22;56269;51.738;21.652;2022-12-29T03:11:26;2.34;89.08
69162;DHT22;56269;51.738;21.652;2022-12-29T03:14:27;2.38;88.83
69162;DHT22;56269;51.738;21.652;2022-12-29T03:19:49;2.40;88.37
69162;DHT22;56269;51.738;21.652;2022-12-29T03:22:20;2.45;88.64
69162;DHT22;56269;51.738;21.652;2022-12-29T03:25:03;2.44;89.19
69162;DHT22;56269;51.738;21.652;2022-12-29T03:27:39;2.42;88.49
69162;DHT22;56269;51.738;21.652;2022-12-29T03:30:07;2.41;88.86
69162;DHT22;56269;51.738;21.652;2022-12-29T03:35:08;2.40;89.33
69162;DHT22;56269;51.738;21.652;2022-12-29T03:37:39;2.42;90.19
69162;DHT22;56269;51.738;21.652;2022-12-29T03:40:07;2.34;89.90
69162;DHT22;56269;51.738;21.652;2022-12-29T03:42:35;2.30;90.40
69162;DHT22;56269;51.738;21.652;2022-12-29T03:45:04;2.23;91.65
69162;DHT22;56269;51.738;21.652;2022-12-29T03:47:31;2.23;91.56
69162;DHT22;56269;51.738;21.652;2022-12-29T03:49:58;2.10;93.08
69162;DHT22;56269;51.738;21.652;2022-12-29T03:52:24;2.11;93.25
69162;DHT22;56269;51.738;21.652;2022-12-29T03:54:50;2.10;93.41
69162;DHT22;56269;51.738;21.652;2022-12-29T03:57:16;2.07;92.98
69162;DHT22;56269;51.738;21.652;2022-12-29T03:59:43;2.07;94.04
69162;DHT22;56269;51.738;21.652;2022-12-29T04:02:09;2.03;94.55
69162;DHT22;56269;51.738;21.652;2022-12-29T04:04:35;1.96;94.21
69162;DHT22;56269;51.738;21.652;2022-12-29T04:07:02;1.95;95.07
69162;DHT22;56269;51.738;21.652;2022-12-29T04:09:28;1.95;95.04
69162;DHT22;56269;51.738;21.652;2022-12-29T04:11:55;1.97;95.22
69162;DHT22;56269;51.738;21.652;2022-12-29T04:14:22;1.87;95.76
69162;DHT22;56269;51.738;21.652;2022-12-29T04:16:48;1.87;95.98
69162;DHT22;56269;51.738;21.652;2022-12-29T04:19:14;1.85;96.93
69162;DHT22;56269;51.738;21.652;2022-12-29T04:21:40;1.79;96.71
69162;DHT22;56269;51.738;21.652;2022-12-29T04:24:07;1.77;96.98
69162;DHT22;56269;51.738;21.652;2022-12-29T04:26:33;1.77;96.68
69162;DHT22;56269;51.738;21.652;2022-12-29T04:29:00;1.73;97.02
69162;DHT22;56269;51.738;21.652;2022-12-29T04:31:26;1.70;97.14
69162;DHT22;56269;51.738;21.652;2022-12-29T04:33:52;1.67;97.43
69162;DHT22;56269;51.738;21.652;2022-12-29T04:36:19;1.69;97.23
69162;DHT22;56269;51.738;21.652;2022-12-29T04:38:45;1.67;97.71
69162;DHT22;56269;51.738;21.652;2022-12-29T04:41:11;1.60;97.62
69162;DHT22;56269;51.738;21.652;2022-12-29T04:43:37;1.67;96.94
69162;DHT22;56269;51.738;21.652;2022-12-29T04:46:04;1.69;97.38
69162;DHT22;56269;51.738;21.652;2022-12-29T04:48:30;1.67;97.73
69162;DHT22;56269;51.738;21.652;2022-12-29T04:50:56;1.65;97.83
69162;DHT22;56269;51.738;21.652;2022-12-29T04:53:22;1.67;97.19
69162;DHT22;56269;51.738;21.652;2022-12-29T04:55:52;1.70;96.92
69162;DHT22;56269;51.738;21.652;2022-12-29T04:58:20;1.65;97.24
69162;DHT22;56269;51.738;21.652;2022-12-29T05:00:46;1.66;97.00
69162;DHT22;56269;51.738;21.652;2022-12-29T05:03:13;1.67;97.35
69162;DHT22;56269;51.738;21.652;2022-12-29T05:05:39;1.65;97.55
69162;DHT22;56269;51.738;21.652;2022-12-29T05:08:05;1.63;97.51
69162;DHT22;56269;51.738;21.652;2022-12-29T05:10:31;1.69;97.16
69162;DHT22;56269;51.738;21.652;2022-12-29T05:13:07;1.70;97.41
69162;DHT22;56269;51.738;21.652;2022-12-29T05:15:36;1.73;96.92
69162;DHT22;56269;51.738;21.652;2022-12-29T05:18:03;1.73;96.88
69162;DHT22;56269;51.738;21.652;2022-12-29T05:20:29;1.76;96.33
69162;DHT22;56269;51.738;21.652;2022-12-29T05:22:55;1.77;96.21
69162;DHT22;56269;51.738;21.652;2022-12-29T05:25:21;1.77;96.75
69162;DHT22;56269;51.738;21.652;2022-12-29T05:27:47;1.75;96.54
69162;DHT22;56269;51.738;21.652;2022-12-29T05:30:14;1.75;96.48
69162;DHT22;56269;51.738;21.652;2022-12-29T05:32:40;1.80;95.96
69162;DHT22;56269;51.738;21.652;2022-12-29T05:35:07;1.75;96.20
69162;DHT22;56269;51.738;21.652;2022-12-29T05:37:33;1.79;95.48
69162;DHT22;56269;51.738;21.652;2022-12-29T05:39:59;1.83;95.55
69162;DHT22;56269;51.738;21.652;2022-12-29T05:42:26;1.87;94.87
69162;DHT22;56269;51.738;21.652;2022-12-29T05:44:52;1.90;94.84
69162;DHT22;56269;51.738;21.652;2022-12-29T05:47:19;1.92;95.05
69162;DHT22;56269;51.738;21.652;2022-12-29T05:49:45;1.92;95.12
69162;DHT22;56269;51.738;21.652;2022-12-29T05:52:12;1.95;94.84
69162;DHT22;56269;51.738;21.652;2022-12-29T05:54:38;2.02;94.18
69162;DHT22;56269;51.738;21.652;2022-12-29T05:57:04;1.92;94.59
69162;DHT22;56269;51.738;21.652;2022-12-29T05:59:30;1.92;94.47
69162;DHT22;56269;51.738;21.652;2022-12-29T06:01:57;1.96;94.30
69162;DHT22;56269;51.738;21.652;2022-12-29T06:04:23;1.97;94.11
69162;DHT22;56269;51.738;21.652;2022-12-29T06:06:49;2.02;93.75
69162;DHT22;56269;51.738;21.652;2022-12-29T06:09:15;2.00;93.40
69162;DHT22;56269;51.738;21.652;2022-12-29T06:11:42;2.00;94.01
69162;DHT22;56269;51.738;21.652;2022-12-29T06:14:08;1.93;93.65
69162;DHT22;56269;51.738;21.652;2022-12-29T06:16:35;1.97;93.99
69162;DHT22;56269;51.738;21.652;2022-12-29T06:19:01;2.06;93.04
69162;DHT22;56269;51.738;21.652;2022-12-29T06:21:28;2.05;92.93
69162;DHT22;56269;51.738;21.652;2022-12-29T06:23:54;2.03;92.62
69162;DHT22;56269;51.738;21.652;2022-12-29T06:26:20;2.05;92.83
69162;DHT22;56269;51.738;21.652;2022-12-29T06:28:46;1.97;92.91
69162;DHT22;56269;51.738;21.652;2022-12-29T06:31:13;1.90;93.39
69162;DHT22;56269;51.738;21.652;2022-12-29T06:33:39;1.99;92.83
69162;DHT22;56269;51.738;21.652;2022-12-29T06:36:06;2.11;91.68
69162;DHT22;56269;51.738;21.652;2022-12-29T06:38:32;2.13;92.08
69162;DHT22;56269;51.738;21.652;2022-12-29T06:40:58;2.13;91.68
69162;DHT22;56269;51.738;21.652;2022-12-29T06:43:24;2.17;91.17
69162;DHT22;56269;51.738;21.652;2022-12-29T06:45:51;2.23;90.73
69162;DHT22;56269;51.738;21.652;2022-12-29T06:48:17;2.31;90.33
69162;DHT22;56269;51.738;21.652;2022-12-29T06:50:43;2.34;90.06
69162;DHT22;56269;51.738;21.652;2022-12-29T06:53:09;2.37;90.18
69162;DHT22;56269;51.738;21.652;2022-12-29T06:55:36;2.40;89.83
69162;DHT22;56269;51.738;21.652;2022-12-29T06:58:02;2.49;89.28
69162;DHT22;56269;51.738;21.652;2022-12-29T07:00:29;2.45;89.84
69162;DHT22;56269;51.738;21.652;2022-12-29T07:02:56;2.47;89.50
69162;DHT22;56269;51.738;21.652;2022-12-29T07:05:24;2.49;89.85
69162;DHT22;56269;51.738;21.652;2022-12-29T07:07:54;2.55;88.97
69162;DHT22;56269;51.738;21.652;2022-12-29T07:10:22;2.55;89.73
69162;DHT22;56269;51.738;21.652;2022-12-29T07:12:57;2.57;89.46
69162;DHT22;56269;51.738;21.652;2022-12-29T07:15:26;2.61;88.92
69162;DHT22;56269;51.738;21.652;2022-12-29T07:17:52;2.65;88.42
69162;DHT22;56269;51.738;21.652;2022-12-29T07:20:19;2.61;88.91
69162;DHT22;56269;51.738;21.652;2022-12-29T07:22:45;2.65;88.38
69162;DHT22;56269;51.738;21.652;2022-12-29T07:25:13;2.59;88.81
69162;DHT22;56269;51.738;21.652;2022-12-29T07:27:39;2.64;88.06
69162;DHT22;56269;51.738;21.652;2022-12-29T07:30:06;2.71;87.56
69162;DHT22;56269;51.738;21.652;2022-12-29T07:32:33;2.71;87.73
69162;DHT22;56269;51.738;21.652;2022-12-29T07:34:59;2.81;87.74
69162;DHT22;56269;51.738;21.652;2022-12-29T07:37:25;2.87;87.30
69162;DHT22;56269;51.738;21.652;2022-12-29T07:39:52;2.89;87.17
69162;DHT22;56269;51.738;21.652;2022-12-29T07:42:18;2.98;87.19
69162;DHT22;56269;51.738;21.652;2022-12-29T07:44:45;2.98;87.40
69162;DHT22;56269;51.738;21.652;2022-12-29T07:47:11;3.00;86.92
69162;DHT22;56269;51.738;21.652;2022-12-29T07:49:37;3.03;86.50
69162;DHT22;56269;51.738;21.652;2022-12-29T07:52:03;3.13;85.73
69162;DHT22;56269;51.738;21.652;2022-12-29T07:54:30;3.12;85.83
69162;DHT22;56269;51.738;21.652;2022-12-29T07:56:56;3.18;85.65
69162;DHT22;56269;51.738;21.652;2022-12-29T07:59:26;3.29;85.56
69162;DHT22;56269;51.738;21.652;2022-12-29T08:01:52;3.53;84.54
69162;DHT22;56269;51.738;21.652;2022-12-29T08:04:18;3.64;84.03
69162;DHT22;56269;51.738;21.652;2022-12-29T08:06:44;3.84;83.91
69162;DHT22;56269;51.738;21.652;2022-12-29T08:09:11;3.95;83.37
69162;DHT22;56269;51.738;21.652;2022-12-29T08:11:37;4.12;83.66
69162;DHT22;56269;51.738;21.652;2022-12-29T08:14:04;4.31;82.82
69162;DHT22;56269;51.738;21.652;2022-12-29T08:16:30;4.38;81.56
69162;DHT22;56269;51.738;21.652;2022-12-29T08:18:56;4.36;81.57
69162;DHT22;56269;51.738;21.652;2022-12-29T08:21:23;4.21;81.75
69162;DHT22;56269;51.738;21.652;2022-12-29T08:23:49;4.09;82.10
69162;DHT22;56269;51.738;21.652;2022-12-29T08:26:15;4.12;82.18
69162;DHT22;56269;51.738;21.652;2022-12-29T08:28:42;4.15;82.90
69162;DHT22;56269;51.738;21.652;2022-12-29T08:31:08;4.09;81.88
69162;DHT22;56269;51.738;21.652;2022-12-29T08:33:34;4.16;83.47
69162;DHT22;56269;51.738;21.652;2022-12-29T08:36:03;4.19;81.81
69162;DHT22;56269;51.738;21.652;2022-12-29T08:38:30;4.18;83.08
69162;DHT22;56269;51.738;21.652;2022-12-29T08:40:57;4.28;82.41
69162;DHT22;56269;51.738;21.652;2022-12-29T08:43:24;4.26;82.14
69162;DHT22;56269;51.738;21.652;2022-12-29T08:45:51;4.25;81.44
69162;DHT22;56269;51.738;21.652;2022-12-29T08:48:17;4.56;81.67
69162;DHT22;56269;51.738;21.652;2022-12-29T08:50:47;4.86;80.70
69162;DHT22;56269;51.738;21.652;2022-12-29T08:53:14;4.88;80.96
69162;DHT22;56269;51.738;21.652;2022-12-29T08:55:40;4.79;80.28
69162;DHT22;56269;51.738;21.652;2022-12-29T08:58:06;4.90;80.56
69162;DHT22;56269;51.738;21.652;2022-12-29T09:00:32;4.81;80.35
69162;DHT22;56269;51.738;21.652;2022-12-29T09:02:59;5.13;79.22
69162;DHT22;56269;51.738;21.652;2022-12-29T09:05:25;4.84;79.53
69162;DHT22;56269;51.738;21.652;2022-12-29T09:07:51;5.10;80.06
69162;DHT22;56269;51.738;21.652;2022-12-29T09:10:17;4.90;80.09
69162;DHT22;56269;51.738;21.652;2022-12-29T09:12:44;5.07;79.85
69162;DHT22;56269;51.738;21.652;2022-12-29T09:15:10;5.01;79.05
69162;DHT22;56269;51.738;21.652;2022-12-29T09:17:36;5.01;80.44
69162;DHT22;56269;51.738;21.652;2022-12-29T09:20:20;4.94;79.68
69162;DHT22;56269;51.738;21.652;2022-12-29T09:22:47;5.07;81.18
69162;DHT22;56269;51.738;21.652;2022-12-29T09:25:14;5.06;80.88
69162;DHT22;56269;51.738;21.652;2022-12-29T09:27:41;5.18;80.62
69162;DHT22;56269;51.738;21.652;2022-12-29T09:30:10;5.23;79.57
69162;DHT22;56269;51.738;21.652;2022-12-29T09:32:37;5.20;78.83
69162;DHT22;56269;51.738;21.652;2022-12-29T09:35:04;5.00;80.46
69162;DHT22;56269;51.738;21.652;2022-12-29T09:37:30;5.01;80.53
69162;DHT22;56269;51.738;21.652;2022-12-29T09:39:56;4.96;80.28
69162;DHT22;56269;51.738;21.652;2022-12-29T09:42:41;4.91;80.61
69162;DHT22;56269;51.738;21.652;2022-12-29T09:45:17;4.88;80.10
69162;DHT22;56269;51.738;21.652;2022-12-29T09:47:45;4.93;80.43
69162;DHT22;56269;51.738;21.652;2022-12-29T09:50:28;4.94;81.23
69162;DHT22;56269;51.738;21.652;2022-12-29T09:56:02;5.06;80.09
69162;DHT22;56269;51.738;21.652;2022-12-29T09:58:43;5.06;80.64
69162;DHT22;56269;51.738;21.652;2022-12-29T10:01:26;5.14;80.25
69162;DHT22;56269;51.738;21.652;2022-12-29T10:03:58;5.08;80.35
69162;DHT22;56269;51.738;21.652;2022-12-29T10:09:59;5.14;80.94
69162;DHT22;56269;51.738;21.652;2022-12-29T10:12:47;5.27;80.01
69162;DHT22;56269;51.738;21.652;2022-12-29T10:20:59;5.47;80.35
69162;DHT22;56269;51.738;21.652;2022-12-29T10:23:55;5.45;79.53
69162;DHT22;56269;51.738;21.652;2022-12-29T10:26:33;5.55;79.23
69162;DHT22;56269;51.738;21.652;2022-12-29T10:29:06;5.69;79.23
69162;DHT22;56269;51.738;21.652;2022-12-29T10:31:43;5.75;79.15
69162;DHT22;56269;51.738;21.652;2022-12-29T10:34:22;5.75;79.09
69162;DHT22;56269;51.738;21.652;2022-12-29T10:37:38;5.88;78.53
69162;DHT22;56269;51.738;21.652;2022-12-29T10:39:52;5.96;78.77
69162;DHT22;56269;51.738;21.652;2022-12-29T10:42:29;6.06;80.21
69162;DHT22;56269;51.738;21.652;2022-12-29T10:44:59;6.03;78.43
69162;DHT22;56269;51.738;21.652;2022-12-29T10:47:29;6.14;77.85
69162;DHT22;56269;51.738;21.652;2022-12-29T10:49:59;6.42;78.10
69162;DHT22;56269;51.738;21.652;2022-12-29T10:52:27;6.52;77.62
69162;DHT22;56269;51.738;21.652;2022-12-29T10:57:31;6.82;76.03
69162;DHT22;56269;51.738;21.652;2022-12-29T10:59:58;7.03;76.07
69162;DHT22;56269;51.738;21.652;2022-12-29T11:02:54;7.56;75.81
69162;DHT22;56269;51.738;21.652;2022-12-29T11:08:00;7.75;73.94
69162;DHT22;56269;51.738;21.652;2022-12-29T11:13:03;8.12;73.53
69162;DHT22;56269;51.738;21.652;2022-12-29T11:15:44;8.12;72.38
69162;DHT22;56269;51.738;21.652;2022-12-29T11:20:50;8.45;72.81
69162;DHT22;56269;51.738;21.652;2022-12-29T11:23:30;8.09;73.79
69162;DHT22;56269;51.738;21.652;2022-12-29T11:26:14;7.88;72.79
69162;DHT22;56269;51.738;21.652;2022-12-29T11:28:46;7.95;72.44
69162;DHT22;56269;51.738;21.652;2022-12-29T11:31:16;7.95;73.48
69162;DHT22;56269;51.738;21.652;2022-12-29T11:33:42;7.84;73.36
69162;DHT22;56269;51.738;21.652;2022-12-29T11:36:20;7.63;74.19
69162;DHT22;56269;51.738;21.652;2022-12-29T11:38:50;7.54;74.38
69162;DHT22;56269;51.738;21.652;2022-12-29T11:41:24;7.50;74.14
69162;DHT22;56269;51.738;21.652;2022-12-29T11:43:52;7.54;75.87
69162;DHT22;56269;51.738;21.652;2022-12-29T11:46:30;7.62;75.00
69162;DHT22;56269;51.738;21.652;2022-12-29T11:48:59;7.62;75.43
69162;DHT22;56269;51.738;21.652;2022-12-29T11:51:44;7.63;73.38
69162;DHT22;56269;51.738;21.652;2022-12-29T11:54:16;7.66;73.81
69162;DHT22;56269;51.738;21.652;2022-12-29T11:56:43;7.75;73.66
69162;DHT22;56269;51.738;21.652;2022-12-29T12:01:58;7.78;74.74
69162;DHT22;56269;51.738;21.652;2022-12-29T12:04:30;7.70;76.05
69162;DHT22;56269;51.738;21.652;2022-12-29T12:07:23;7.73;74.94
69162;DHT22;56269;51.738;21.652;2022-12-29T12:10:01;7.66;75.79
69162;DHT22;56269;51.738;21.652;2022-12-29T12:12:35;7.75;76.28
69162;DHT22;56269;51.738;21.652;2022-12-29T12:15:04;7.70;75.95
69162;DHT22;56269;51.738;21.652;2022-12-29T12:17:37;7.73;75.80
69162;DHT22;56269;51.738;21.652;2022-12-29T12:20:27;7.64;75.97
69162;DHT22;56269;51.738;21.652;2022-12-29T12:26:34;7.60;76.46
69162;DHT22;56269;51.738;21.652;2022-12-29T12:29:10;7.57;76.25
69162;DHT22;56269;51.738;21.652;2022-12-29T12:34:22;7.49;78.00
69162;DHT22;56269;51.738;21.652;2022-12-29T12:40:11;7.46;77.50
69162;DHT22;56269;51.738;21.652;2022-12-29T12:46:11;7.46;76.94
69162;DHT22;56269;51.738;21.652;2022-12-29T12:48:52;7.54;77.24
69162;DHT22;56269;51.738;21.652;2022-12-29T12:51:47;7.53;77.00
69162;DHT22;56269;51.738;21.652;2022-12-29T12:57:05;7.54;76.87
69162;DHT22;56269;51.738;21.652;2022-12-29T12:59:56;7.53;77.21
69162;DHT22;56269;51.738;21.652;2022-12-29T13:02:54;7.59;76.12
69162;DHT22;56269;51.738;21.652;2022-12-29T13:11:37;7.53;78.28
69162;DHT22;56269;51.738;21.652;2022-12-29T13:22:37;7.32;79.04
69162;DHT22;56269;51.738;21.652;2022-12-29T13:25:49;7.29;79.40
69162;DHT22;56269;51.738;21.652;2022-12-29T13:31:43;7.33;78.09
69162;DHT22;56269;51.738;21.652;2022-12-29T13:37:00;7.33;78.86
69162;DHT22;56269;51.738;21.652;2022-12-29T13:39:42;7.36;79.90
69162;DHT22;56269;51.738;21.652;2022-12-29T13:42:13;7.39;79.36
69162;DHT22;56269;51.738;21.652;2022-12-29T13:45:10;7.39;78.79
69162;DHT22;56269;51.738;21.652;2022-12-29T13:50:30;7.42;80.85
69162;DHT22;56269;51.738;21.652;2022-12-29T13:59:20;7.46;79.90
69162;DHT22;56269;51.738;21.652;2022-12-29T14:05:04;7.71;78.46
69162;DHT22;56269;51.738;21.652;2022-12-29T14:07:38;7.74;79.15
69162;DHT22;56269;51.738;21.652;2022-12-29T14:10:30;7.73;78.42
69162;DHT22;56269;51.738;21.652;2022-12-29T14:13:09;7.73;79.33
69162;DHT22;56269;51.738;21.652;2022-12-29T14:15:40;7.77;79.09
69162;DHT22;56269;51.738;21.652;2022-12-29T14:18:25;7.75;79.18
69162;DHT22;56269;51.738;21.652;2022-12-29T14:23:40;7.71;80.10
69162;DHT22;56269;51.738;21.652;2022-12-29T14:28:47;7.71;80.24
69162;DHT22;56269;51.738;21.652;2022-12-29T14:34:16;7.81;78.82
69162;DHT22;56269;51.738;21.652;2022-12-29T14:36:58;7.73;79.49
69162;DHT22;56269;51.738;21.652;2022-12-29T14:39:41;7.80;79.25
69162;DHT22;56269;51.738;21.652;2022-12-29T14:44:55;7.66;80.12
69162;DHT22;56269;51.738;21.652;2022-12-29T14:50:41;7.71;79.97
69162;DHT22;56269;51.738;21.652;2022-12-29T14:53:45;7.73;79.70
69162;DHT22;56269;51.738;21.652;2022-12-29T14:56:16;7.64;80.58
69162;DHT22;56269;51.738;21.652;2022-12-29T14:58:57;7.56;80.77
69162;DHT22;56269;51.738;21.652;2022-12-29T15:04:25;7.42;81.18
69162;DHT22;56269;51.738;21.652;2022-12-29T15:06:55;7.34;81.18
69162;DHT22;56269;51.738;21.652;2022-12-29T15:09:29;7.37;80.65
69162;DHT22;56269;51.738;21.652;2022-12-29T15:12:17;7.36;80.98
69162;DHT22;56269;51.738;21.652;2022-12-29T15:14:57;7.37;80.76
69162;DHT22;56269;51.738;21.652;2022-12-29T15:17:26;7.43;79.95
69162;DHT22;56269;51.738;21.652;2022-12-29T15:19:57;7.46;79.44
69162;DHT22;56269;51.738;21.652;2022-12-29T15:22:26;7.43;79.66
69162;DHT22;56269;51.738;21.652;2022-12-29T15:24:56;7.33;80.36
69162;DHT22;56269;51.738;21.652;2022-12-29T15:27:26;7.29;80.40
69162;DHT22;56269;51.738;21.652;2022-12-29T15:30:02;7.20;80.84
69162;DHT22;56269;51.738;21.652;2022-12-29T15:32:50;7.12;80.80
69162;DHT22;56269;51.738;21.652;2022-12-29T15:35:38;7.12;81.06
69162;DHT22;56269;51.738;21.652;2022-12-29T15:38:38;7.05;81.07
69162;DHT22;56269;51.738;21.652;2022-12-29T15:41:34;7.03;81.17
69162;DHT22;56269;51.738;21.652;2022-12-29T15:44:36;6.89;81.74
69162;DHT22;56269;51.738;21.652;2022-12-29T15:47:16;6.84;82.13
69162;DHT22;56269;51.738;21.652;2022-12-29T15:50:17;6.78;82.09
69162;DHT22;56269;51.738;21.652;2022-12-29T15:52:50;6.82;82.09
69162;DHT22;56269;51.738;21.652;2022-12-29T15:55:35;6.80;81.55
69162;DHT22;56269;51.738;21.652;2022-12-29T15:58:05;6.80;82.43
69162;DHT22;56269;51.738;21.652;2022-12-29T16:00:35;6.81;81.11
69162;DHT22;56269;51.738;21.652;2022-12-29T16:03:10;6.75;82.02
69162;DHT22;56269;51.738;21.652;2022-12-29T16:05:42;6.67;82.26
69162;DHT22;56269;51.738;21.652;2022-12-29T16:08:42;6.64;82.71
69162;DHT22;56269;51.738;21.652;2022-12-29T16:11:24;6.58;82.89
69162;DHT22;56269;51.738;21.652;2022-12-29T16:13:55;6.52;83.22
69162;DHT22;56269;51.738;21.652;2022-12-29T16:16:37;6.50;83.21
69162;DHT22;56269;51.738;21.652;2022-12-29T16:19:28;6.51;82.91
69162;DHT22;56269;51.738;21.652;2022-12-29T16:22:01;6.54;83.10
69162;DHT22;56269;51.738;21.652;2022-12-29T16:24:32;6.44;83.71
69162;DHT22;56269;51.738;21.652;2022-12-29T16:29:35;6.38;83.91
69162;DHT22;56269;51.738;21.652;2022-12-29T16:32:27;6.33;84.02
69162;DHT22;56269;51.738;21.652;2022-12-29T16:35:17;6.33;84.61
69162;DHT22;56269;51.738;21.652;2022-12-29T16:37:46;6.30;84.25
69162;DHT22;56269;51.738;21.652;2022-12-29T16:40:25;6.19;84.49
69162;DHT22;56269;51.738;21.652;2022-12-29T16:43:00;6.07;84.90
69162;DHT22;56269;51.738;21.652;2022-12-29T16:48:21;5.80;86.06
69162;DHT22;56269;51.738;21.652;2022-12-29T16:50:49;5.69;85.83
69162;DHT22;56269;51.738;21.652;2022-12-29T16:53:21;5.51;86.44
69162;DHT22;56269;51.738;21.652;2022-12-29T16:55:51;5.65;86.01
69162;DHT22;56269;51.738;21.652;2022-12-29T16:58:21;5.58;85.97
69162;DHT22;56269;51.738;21.652;2022-12-29T17:00:48;5.65;85.83
69162;DHT22;56269;51.738;21.652;2022-12-29T17:03:15;5.48;86.36
69162;DHT22;56269;51.738;21.652;2022-12-29T17:05:41;5.60;85.75
69162;DHT22;56269;51.738;21.652;2022-12-29T17:08:18;5.54;86.14
69162;DHT22;56269;51.738;21.652;2022-12-29T17:10:54;5.54;86.04
69162;DHT22;56269;51.738;21.652;2022-12-29T17:13:40;5.39;86.41
69162;DHT22;56269;51.738;21.652;2022-12-29T17:16:09;5.37;86.72
69162;DHT22;56269;51.738;21.652;2022-12-29T17:18:36;5.35;86.67
69162;DHT22;56269;51.738;21.652;2022-12-29T17:21:02;5.30;87.01
69162;DHT22;56269;51.738;21.652;2022-12-29T17:23:31;5.34;86.92
69162;DHT22;56269;51.738;21.652;2022-12-29T17:25:58;5.27;87.14
69162;DHT22;56269;51.738;21.652;2022-12-29T17:28:30;5.21;87.36
69162;DHT22;56269;51.738;21.652;2022-12-29T17:31:02;5.15;87.60
69162;DHT22;56269;51.738;21.652;2022-12-29T17:33:34;5.30;87.17
69162;DHT22;56269;51.738;21.652;2022-12-29T17:36:01;5.24;87.21
69162;DHT22;56269;51.738;21.652;2022-12-29T17:38:29;5.08;87.61
69162;DHT22;56269;51.738;21.652;2022-12-29T17:40:56;5.01;88.04
69162;DHT22;56269;51.738;21.652;2022-12-29T17:43:23;4.91;88.29
69162;DHT22;56269;51.738;21.652;2022-12-29T17:45:55;4.79;88.73
69162;DHT22;56269;51.738;21.652;2022-12-29T17:48:23;4.63;89.26
69162;DHT22;56269;51.738;21.652;2022-12-29T17:50:51;4.63;89.46
69162;DHT22;56269;51.738;21.652;2022-12-29T17:53:21;4.57;89.52
69162;DHT22;56269;51.738;21.652;2022-12-29T17:55:48;4.53;89.67
69162;DHT22;56269;51.738;21.652;2022-12-29T17:58:24;4.50;89.59
69162;DHT22;56269;51.738;21.652;2022-12-29T18:00:52;4.42;90.07
69162;DHT22;56269;51.738;21.652;2022-12-29T18:03:30;4.39;90.23
69162;DHT22;56269;51.738;21.652;2022-12-29T18:05:56;4.43;90.15
69162;DHT22;56269;51.738;21.652;2022-12-29T18:08:23;4.46;90.15